Time;durP1;ratioP1;P1;durP2;ratioP2;P2;SDS_P1;SDS_P2;PMS_P1;PMS_P2;Temp;Humidity;BMP_temperature;BMP_pressure;BME280_temperature;BME280_humidity;BME280_pressure;Samples;Min_cycle;Max_cycle;Signal;HPM_P1;HPM_P2
2023/10/29 00:01:04;;;;;;;;;;;;;;;11.19;100.00;99163.78;5080572;28;19920;-78
2023/10/29 00:03:30;;;;;;;;;;;;;;;11.19;100.00;99161.16;5074989;28;19924;-78
2023/10/29 00:05:55;;;;;;;;;;;;;;;11.20;100.00;99149.78;5079283;28;19920;-77
2023/10/29 00:08:20;;;;;;;;;;;;;;;11.21;100.00;99154.06;5082115;28;20375;-78
2023/10/29 00:10:46;;;;;;;;;;;;;;;11.22;100.00;99151.41;5080696;28;19929;-78
2023/10/29 00:13:11;;;;;;;;;;;;;;;11.24;100.00;99138.25;5076451;28;19920;-78
2023/10/29 00:15:36;;;;;;;;;;;;;;;11.23;100.00;99129.59;5063922;28;20365;-78
2023/10/29 00:18:01;;;;;;;;;;;;;;;11.26;100.00;99133.81;5078215;28;19942;-78
2023/10/29 00:20:27;;;;;;;;;;;;;;;11.24;100.00;99107.81;5083426;28;20364;-78
2023/10/29 00:22:52;;;;;;;;;;;;;;;11.24;100.00;99101.75;5073804;28;19967;-78
2023/10/29 00:25:18;;;;;;;;;;;;;;;11.21;100.00;99081.03;5079189;28;19931;-78
2023/10/29 00:27:43;;;;;;;;;;;;;;;11.19;100.00;99069.88;5080073;28;20447;-78
2023/10/29 00:30:08;;;;;;;;;;;;;;;11.16;100.00;99063.03;5084095;28;19928;-78
2023/10/29 00:32:34;;;;;;;;;;;;;;;11.17;100.00;99064.72;5075950;28;19943;-78
2023/10/29 00:34:59;;;;;;;;;;;;;;;11.16;100.00;99059.59;5078258;28;19981;-78
2023/10/29 00:37:25;;;;;;;;;;;;;;;11.15;100.00;99044.84;5073822;28;19967;-78
2023/10/29 00:39:50;;;;;;;;;;;;;;;11.14;100.00;99079.69;5078682;28;19929;-78
2023/10/29 00:42:15;;;;;;;;;;;;;;;11.16;100.00;99111.75;5077305;28;20283;-78
2023/10/29 00:44:40;;;;;;;;;;;;;;;11.15;100.00;99095.28;5078368;28;19935;-78
2023/10/29 00:47:06;;;;;;;;;;;;;;;11.17;100.00;99085.59;5088366;28;19920;-78
2023/10/29 00:49:32;;;;;;;;;;;;;;;11.19;100.00;99090.72;5073047;28;19930;-78
2023/10/29 00:51:57;;;;;;;;;;;;;;;11.19;100.00;99094.19;5085645;28;19943;-78
2023/10/29 00:54:23;;;;;;;;;;;;;;;11.21;100.00;99097.53;5082537;28;20375;-78
2023/10/29 00:56:48;;;;;;;;;;;;;;;11.22;100.00;99088.81;5080395;28;19916;-78
2023/10/29 00:59:14;;;;;;;;;;;;;;;11.24;100.00;99073.06;5082023;28;19951;-78
2023/10/29 01:01:39;;;;;;;;;;;;;;;11.27;100.00;99074.66;5077396;28;20332;-78
2023/10/29 01:04:05;;;;;;;;;;;;;;;11.24;100.00;99060.84;5083849;28;20006;-78
2023/10/29 01:06:38;;;;;;;;;;;;;;;11.27;100.00;99062.44;5074151;28;20291;-78
2023/10/29 01:09:03;;;;;;;;;;;;;;;11.29;100.00;99076.28;5084235;28;19973;-78
2023/10/29 01:11:29;;;;;;;;;;;;;;;11.29;100.00;99059.78;5082179;28;19924;-78
2023/10/29 01:13:54;;;;;;;;;;;;;;;11.31;100.00;99050.09;5082864;28;19916;-78
2023/10/29 01:16:19;;;;;;;;;;;;;;;11.27;100.00;99041.59;5080182;28;19927;-78
2023/10/29 01:18:44;;;;;;;;;;;;;;;11.24;100.00;99034.75;5077319;28;20038;-78
2023/10/29 01:21:09;;;;;;;;;;;;;;;11.23;100.00;99027.88;5079117;28;20022;-78
2023/10/29 01:23:35;;;;;;;;;;;;;;;11.23;100.00;99040.06;5077610;28;20288;-78
2023/10/29 01:26:00;;;;;;;;;;;;;;;11.22;100.00;99054.91;5077321;28;19931;-78
2023/10/29 01:28:26;;;;;;;;;;;;;;;11.19;100.00;99042.03;5082426;28;19927;-78
2023/10/29 01:30:51;;;;;;;;;;;;;;;11.20;100.00;99051.50;5078871;28;19924;-78
2023/10/29 01:33:16;;;;;;;;;;;;;;;11.18;100.00;99042.09;5078318;28;20030;-78
2023/10/29 01:35:42;;;;;;;;;;;;;;;11.15;100.00;99030.06;5072256;28;19921;-78
2023/10/29 01:38:07;;;;;;;;;;;;;;;11.13;100.00;99018.03;5082218;28;19921;-78
2023/10/29 01:40:32;;;;;;;;;;;;;;;11.11;100.00;99027.69;5074536;28;19943;-78
2023/10/29 01:42:57;;;;;;;;;;;;;;;11.07;100.00;99007.94;5077011;28;19920;-78
2023/10/29 01:45:23;;;;;;;;;;;;;;;11.02;100.00;99003.81;5077068;28;19927;-78
2023/10/29 01:47:48;;;;;;;;;;;;;;;10.99;100.00;99009.19;5086962;28;19974;-78
2023/10/29 01:50:15;;;;;;;;;;;;;;;10.98;100.00;99004.88;5084427;28;19956;-78
2023/10/29 01:52:40;;;;;;;;;;;;;;;10.99;100.00;99001.38;5085061;28;20315;-78
2023/10/29 01:55:06;;;;;;;;;;;;;;;10.98;100.00;99019.69;5084352;28;20007;-78
2023/10/29 01:57:33;;;;;;;;;;;;;;;10.95;100.00;99007.69;5075622;28;19978;-77
2023/10/29 01:59:58;;;;;;;;;;;;;;;10.88;100.00;99016.75;5083981;28;20409;-78
2023/10/29 02:02:23;;;;;;;;;;;;;;;10.87;100.00;99020.28;5079107;28;19928;-78
2023/10/29 02:04:48;;;;;;;;;;;;;;;10.92;100.00;99028.72;5082548;28;19920;-78
2023/10/29 02:07:14;;;;;;;;;;;;;;;10.98;100.00;99019.69;5081477;28;20015;-78
2023/10/29 02:09:39;;;;;;;;;;;;;;;11.02;100.00;99029.91;5089428;28;19965;-78
2023/10/29 02:12:04;;;;;;;;;;;;;;;11.07;100.00;99041.84;5080225;28;20275;-78
2023/10/29 02:14:32;;;;;;;;;;;;;;;11.08;100.00;99028.69;5083264;28;19920;-78
2023/10/29 02:16:57;;;;;;;;;;;;;;;11.09;100.00;99019.97;5080194;28;19920;-78
2023/10/29 02:19:22;;;;;;;;;;;;;;;11.09;100.00;99027.78;5079771;28;19940;-78
2023/10/29 02:21:47;;;;;;;;;;;;;;;11.09;100.00;99006.09;5072292;28;20047;-78
2023/10/29 02:24:12;;;;;;;;;;;;;;;11.10;100.00;99031.25;5084056;28;20424;-78
2023/10/29 02:26:38;;;;;;;;;;;;;;;11.06;100.00;99029.72;5087081;28;19920;-78
2023/10/29 02:29:03;;;;;;;;;;;;;;;10.98;100.00;99015.31;5082104;28;19920;-78
2023/10/29 02:31:28;;;;;;;;;;;;;;;10.95;100.00;99028.56;5080925;28;19920;-78
2023/10/29 02:33:53;;;;;;;;;;;;;;;10.93;100.00;99026.94;5080642;28;19962;-78
2023/10/29 02:36:18;;;;;;;;;;;;;;;10.93;100.00;99017.34;5075512;28;20031;-78
2023/10/29 02:38:44;;;;;;;;;;;;;;;10.98;100.00;99024.91;5088060;28;19920;-78
2023/10/29 02:41:09;;;;;;;;;;;;;;;11.00;100.00;99026.53;5084451;28;19928;-78
2023/10/29 02:43:34;;;;;;;;;;;;;;;11.02;100.00;99008.19;5074641;28;20123;-78
2023/10/29 02:46:00;;;;;;;;;;;;;;;11.07;100.00;99003.56;5072303;28;19932;-78
2023/10/29 02:48:25;;;;;;;;;;;;;;;11.07;100.00;99014.00;5086392;28;19920;-78
2023/10/29 02:50:51;;;;;;;;;;;;;;;11.10;100.00;99015.59;5077893;28;20380;-78
2023/10/29 02:53:17;;;;;;;;;;;;;;;11.11;100.00;99009.44;5083246;28;19974;-78
2023/10/29 02:55:42;;;;;;;;;;;;;;;11.13;100.00;99015.44;5082688;28;20429;-78
2023/10/29 02:58:07;;;;;;;;;;;;;;;11.15;100.00;99022.25;5089290;28;20417;-78
2023/10/29 03:00:33;;;;;;;;;;;;;;;11.17;100.00;99011.72;5082775;28;19935;-78
2023/10/29 03:02:58;;;;;;;;;;;;;;;11.19;100.00;99002.06;5081209;28;19993;-78
2023/10/29 03:05:23;;;;;;;;;;;;;;;11.18;100.00;99018.59;5067507;28;19926;-78
2023/10/29 03:07:48;;;;;;;;;;;;;;;11.19;100.00;99004.66;5078820;28;19924;-78
2023/10/29 03:10:14;;;;;;;;;;;;;;;11.19;100.00;98997.69;5065509;28;19920;-78
2023/10/29 03:12:39;;;;;;;;;;;;;;;11.22;100.00;99009.72;5090627;28;19965;-78
2023/10/29 03:15:05;;;;;;;;;;;;;;;11.22;100.00;99005.34;5083345;28;19921;-78
2023/10/29 03:17:30;;;;;;;;;;;;;;;11.21;100.00;99008.00;5079759;28;20455;-78
2023/10/29 03:19:55;;;;;;;;;;;;;;;11.22;100.00;99007.94;5080520;28;19920;-78
2023/10/29 03:22:21;;;;;;;;;;;;;;;11.24;100.00;99008.69;5082187;28;19966;-78
2023/10/29 03:24:46;;;;;;;;;;;;;;;11.23;100.00;99014.84;5087344;28;20269;-78
2023/10/29 03:27:11;;;;;;;;;;;;;;;11.24;100.00;99007.84;5074054;28;19927;-78
2023/10/29 03:29:36;;;;;;;;;;;;;;;11.24;100.00;99019.09;5088244;28;19920;-78
2023/10/29 03:32:03;;;;;;;;;;;;;;;11.28;100.00;99019.81;5081796;28;19920;-78
2023/10/29 03:34:29;;;;;;;;;;;;;;;11.27;100.00;99023.31;5079151;28;19927;-78
2023/10/29 03:36:54;;;;;;;;;;;;;;;11.27;100.00;99030.31;5067926;28;19921;-78
2023/10/29 03:39:20;;;;;;;;;;;;;;;11.27;100.00;99025.09;5080461;28;20463;-78
2023/10/29 03:41:45;;;;;;;;;;;;;;;11.25;100.00;99010.38;5085777;28;20053;-78
2023/10/29 03:44:10;;;;;;;;;;;;;;;11.20;100.00;99032.41;5084455;28;19920;-78
2023/10/29 03:46:35;;;;;;;;;;;;;;;11.12;100.00;99016.38;5079168;28;20372;-78
2023/10/29 03:49:01;;;;;;;;;;;;;;;11.07;100.00;99024.41;5069146;28;19924;-78
2023/10/29 03:51:28;;;;;;;;;;;;;;;11.02;100.00;99023.84;5083910;28;20394;-78
2023/10/29 03:53:53;;;;;;;;;;;;;;;10.97;100.00;99016.25;5084654;28;20022;-78
2023/10/29 03:56:18;;;;;;;;;;;;;;;10.93;100.00;99013.91;5087469;28;20006;-78
2023/10/29 03:58:44;;;;;;;;;;;;;;;10.92;100.00;99020.03;5085241;28;20011;-78
2023/10/29 04:01:11;;;;;;;;;;;;;;;10.91;100.00;99015.75;5083183;28;20381;-78
2023/10/29 04:03:37;;;;;;;;;;;;;;;10.91;100.00;99018.34;5081564;28;19939;-78
2023/10/29 04:06:06;;;;;;;;;;;;;;;10.93;100.00;99024.34;5089838;28;20364;-78
2023/10/29 04:08:32;;;;;;;;;;;;;;;10.94;100.00;99023.41;5081860;28;20295;-78
2023/10/29 04:10:57;;;;;;;;;;;;;;;10.97;100.00;99015.41;5083189;28;19920;-78
2023/10/29 04:13:22;;;;;;;;;;;;;;;10.99;100.00;99019.63;5083437;28;19924;-78
2023/10/29 04:15:47;;;;;;;;;;;;;;;11.01;100.00;99028.19;5078926;28;20299;-78
2023/10/29 04:18:13;;;;;;;;;;;;;;;10.96;100.00;99029.38;5085101;28;20011;-78
2023/10/29 04:20:38;;;;;;;;;;;;;;;10.93;100.00;99035.59;5080680;28;19921;-78
2023/10/29 04:23:03;;;;;;;;;;;;;;;10.97;100.00;99033.66;5082139;28;19931;-78
2023/10/29 04:25:28;;;;;;;;;;;;;;;11.01;100.00;99030.81;5080907;28;20391;-78
2023/10/29 04:27:54;;;;;;;;;;;;;;;11.08;100.00;99035.69;5080963;28;19960;-78
2023/10/29 04:30:19;;;;;;;;;;;;;;;11.11;100.00;99038.97;5071214;28;19927;-78
2023/10/29 04:32:45;;;;;;;;;;;;;;;11.14;100.00;99032.75;5078381;28;19920;-78
2023/10/29 04:35:10;;;;;;;;;;;;;;;11.14;100.00;99022.31;5078470;28;19959;-78
2023/10/29 04:37:35;;;;;;;;;;;;;;;11.14;100.00;99025.75;5080097;28;19920;-78
2023/10/29 04:40:00;;;;;;;;;;;;;;;11.13;100.00;99041.50;5082998;28;19920;-78
2023/10/29 04:42:25;;;;;;;;;;;;;;;11.13;100.00;99041.50;5071765;28;19924;-78
2023/10/29 04:44:51;;;;;;;;;;;;;;;11.13;100.00;99031.06;5081650;28;19928;-78
2023/10/29 04:47:16;;;;;;;;;;;;;;;11.10;100.00;99036.47;5080816;28;20005;-78
2023/10/29 04:49:43;;;;;;;;;;;;;;;11.13;100.00;99038.91;5080159;28;19920;-78
2023/10/29 04:52:08;;;;;;;;;;;;;;;11.10;100.00;99044.28;5073759;28;19958;-78
2023/10/29 04:54:33;;;;;;;;;;;;;;;11.08;100.00;99046.13;5067837;28;20025;-78
2023/10/29 04:56:58;;;;;;;;;;;;;;;11.07;100.00;99040.06;5086948;28;20317;-78
2023/10/29 04:59:24;;;;;;;;;;;;;;;11.06;100.00;99034.94;5080281;28;19931;-78
2023/10/29 05:01:50;;;;;;;;;;;;;;;11.04;100.00;99037.63;5072740;28;19924;-78
2023/10/29 05:04:16;;;;;;;;;;;;;;;11.06;100.00;99037.56;5083729;28;20405;-78
2023/10/29 05:06:41;;;;;;;;;;;;;;;11.06;100.00;99048.81;5076036;28;19920;-78
2023/10/29 05:09:06;;;;;;;;;;;;;;;11.08;100.00;99046.13;5082725;28;19920;-78
2023/10/29 05:11:31;;;;;;;;;;;;;;;11.06;100.00;99064.47;5076244;28;19924;-78
2023/10/29 05:13:56;;;;;;;;;;;;;;;11.07;100.00;99067.91;5083976;28;19927;-78
2023/10/29 05:16:22;;;;;;;;;;;;;;;11.07;100.00;99084.41;5075000;28;19946;-78
2023/10/29 05:18:47;;;;;;;;;;;;;;;11.09;100.00;99115.63;5083147;28;19920;-78
2023/10/29 05:21:12;;;;;;;;;;;;;;;11.10;100.00;99088.63;5083632;28;19927;-79
2023/10/29 05:23:38;;;;;;;;;;;;;;;11.12;100.00;99097.22;5082355;28;19964;-79
2023/10/29 05:26:04;;;;;;;;;;;;;;;11.13;100.00;99093.66;5074980;28;19966;-79
2023/10/29 05:28:29;;;;;;;;;;;;;;;11.10;100.00;99099.06;5085146;28;20482;-79
2023/10/29 05:30:54;;;;;;;;;;;;;;;11.03;100.00;99088.09;5078026;28;20587;-79
2023/10/29 05:33:20;;;;;;;;;;;;;;;10.97;100.00;99094.47;5080137;28;19920;-79
2023/10/29 05:35:45;;;;;;;;;;;;;;;10.92;100.00;99088.69;5079468;28;20483;-79
2023/10/29 05:38:12;;;;;;;;;;;;;;;10.78;100.00;99093.75;5085926;28;20018;-79
2023/10/29 05:40:37;;;;;;;;;;;;;;;10.64;100.00;99088.44;5083807;28;19947;-79
2023/10/29 05:43:02;;;;;;;;;;;;;;;10.52;100.00;99106.34;5086968;28;20283;-79
2023/10/29 05:45:28;;;;;;;;;;;;;;;10.44;100.00;99116.34;5082246;28;19924;-79
2023/10/29 05:47:55;;;;;;;;;;;;;;;10.40;100.00;99129.56;5083916;28;19974;-79
2023/10/29 05:50:20;;;;;;;;;;;;;;;10.31;100.00;99130.91;5086571;28;19920;-79
2023/10/29 05:52:46;;;;;;;;;;;;;;;10.26;100.00;99125.91;5087952;28;19927;-79
2023/10/29 05:55:11;;;;;;;;;;;;;;;10.24;100.00;99147.72;5082216;28;20335;-79
2023/10/29 05:57:36;;;;;;;;;;;;;;;10.18;100.00;99150.63;5090108;28;19920;-79
2023/10/29 06:00:01;;;;;;;;;;;;;;;10.17;100.00;99154.13;5080262;28;19920;-79
2023/10/29 06:02:26;;;;;;;;;;;;;;;10.16;100.00;99158.47;5082682;28;20383;-78
2023/10/29 06:04:52;;;;;;;;;;;;;;;10.16;100.00;99168.91;5084335;28;19924;-78
2023/10/29 06:07:18;;;;;;;;;;;;;;;10.16;100.00;99179.31;5084375;28;19920;-78
2023/10/29 06:09:43;;;;;;;;;;;;;;;10.15;100.00;99179.41;5081386;28;19919;-78
2023/10/29 06:12:09;;;;;;;;;;;;;;;10.15;100.00;99174.19;5081187;28;20046;-79
2023/10/29 06:14:34;;;;;;;;;;;;;;;10.13;100.00;99184.66;5088121;28;20011;-78
2023/10/29 06:17:00;;;;;;;;;;;;;;;10.13;100.00;99195.09;5074909;28;20365;-78
2023/10/29 06:19:26;;;;;;;;;;;;;;;10.11;100.00;99191.72;5086734;28;19974;-79
2023/10/29 06:21:51;;;;;;;;;;;;;;;10.07;100.00;99206.66;5074790;28;19924;-78
2023/10/29 06:24:16;;;;;;;;;;;;;;;10.06;100.00;99196.31;5073161;28;19966;-78
2023/10/29 06:26:42;;;;;;;;;;;;;;;10.03;100.00;99197.28;5075713;28;20107;-78
2023/10/29 06:29:08;;;;;;;;;;;;;;;9.99;100.00;99202.72;5081461;28;20033;-78
2023/10/29 06:31:34;;;;;;;;;;;;;;;9.95;100.00;99212.44;5088297;28;19919;-78
2023/10/29 06:33:59;;;;;;;;;;;;;;;9.92;100.00;99215.19;5073331;28;20463;-78
2023/10/29 06:36:24;;;;;;;;;;;;;;;9.89;100.00;99211.88;5077201;28;19927;-78
2023/10/29 06:38:50;;;;;;;;;;;;;;;9.85;100.00;99217.22;5084129;28;19920;-78
2023/10/29 06:41:15;;;;;;;;;;;;;;;9.83;100.00;99224.25;5075571;28;19924;-78
2023/10/29 06:43:40;;;;;;;;;;;;;;;9.80;100.00;99229.59;5085969;28;19924;-78
2023/10/29 06:46:05;;;;;;;;;;;;;;;9.78;100.00;99231.44;5082403;28;20007;-78
2023/10/29 06:48:30;;;;;;;;;;;;;;;9.78;100.00;99230.59;5086401;28;19924;-78
2023/10/29 06:50:56;;;;;;;;;;;;;;;9.79;100.00;99233.13;5081598;28;19990;-78
2023/10/29 06:53:21;;;;;;;;;;;;;;;9.77;100.00;99244.50;5078852;28;20375;-78
2023/10/29 06:55:46;;;;;;;;;;;;;;;9.76;100.00;99238.47;5073351;28;19923;-78
2023/10/29 06:58:11;;;;;;;;;;;;;;;9.74;100.00;99240.28;5082469;28;19927;-78
2023/10/29 07:00:36;;;;;;;;;;;;;;;9.73;100.00;99251.63;5074928;28;19920;-78
2023/10/29 07:03:02;;;;;;;;;;;;;;;9.72;100.00;99262.94;5080628;28;20419;-78
2023/10/29 07:05:27;;;;;;;;;;;;;;;9.73;100.00;99263.78;5085391;28;20456;-78
2023/10/29 07:07:52;;;;;;;;;;;;;;;9.69;100.00;99263.09;5078666;28;19920;-78
2023/10/29 07:10:18;;;;;;;;;;;;;;;9.67;100.00;99270.09;5083121;28;20276;-78
2023/10/29 07:12:43;;;;;;;;;;;;;;;9.68;100.00;99281.34;5076470;28;19927;-78
2023/10/29 07:15:09;;;;;;;;;;;;;;;9.69;100.00;99285.66;5080251;28;19920;-78
2023/10/29 07:17:34;;;;;;;;;;;;;;;9.72;100.00;99280.31;5077117;28;19962;-78
2023/10/29 07:20:00;;;;;;;;;;;;;;;9.77;100.00;99294.78;5085399;28;19924;-78
2023/10/29 07:22:25;;;;;;;;;;;;;;;9.84;100.00;99287.56;5082527;28;19961;-78
2023/10/29 07:24:50;;;;;;;;;;;;;;;9.92;100.00;99282.84;5068278;28;19933;-78
2023/10/29 07:27:16;;;;;;;;;;;;;;;9.94;100.00;99283.66;5077699;28;19920;-78
2023/10/29 07:29:41;;;;;;;;;;;;;;;9.97;100.00;99296.53;5080352;28;19920;-78
2023/10/29 07:32:07;;;;;;;;;;;;;;;9.97;100.00;99312.16;5080242;28;19921;-78
2023/10/29 07:34:32;;;;;;;;;;;;;;;9.97;100.00;99324.28;5082002;28;20016;-78
2023/10/29 07:36:57;;;;;;;;;;;;;;;9.96;100.00;99317.41;5082316;28;20429;-78
2023/10/29 07:39:23;;;;;;;;;;;;;;;9.92;100.00;99313.25;5082816;28;19921;-77
2023/10/29 07:41:48;;;;;;;;;;;;;;;9.92;100.00;99326.28;5080141;28;20323;-78
2023/10/29 07:44:13;;;;;;;;;;;;;;;9.90;100.00;99318.53;5081569;28;19993;-78
2023/10/29 07:46:38;;;;;;;;;;;;;;;9.89;100.00;99324.66;5086388;28;20401;-78
2023/10/29 07:49:03;;;;;;;;;;;;;;;9.88;100.00;99325.56;5083045;28;19916;-78
2023/10/29 07:51:29;;;;;;;;;;;;;;;9.88;100.00;99330.78;5078919;28;19934;-78
2023/10/29 07:53:54;;;;;;;;;;;;;;;9.90;100.00;99336.75;5083363;28;19920;-78
2023/10/29 07:56:20;;;;;;;;;;;;;;;9.89;100.00;99342.03;5076825;28;19931;-78
2023/10/29 07:58:46;;;;;;;;;;;;;;;9.90;100.00;99339.34;5077450;28;20364;-78
2023/10/29 08:01:15;;;;;;;;;;;;;;;9.94;100.00;99337.44;5078020;28;19920;-78
2023/10/29 08:03:41;;;;;;;;;;;;;;;10.00;100.00;99335.41;5075714;28;20410;-78
2023/10/29 08:06:07;;;;;;;;;;;;;;;10.04;100.00;99339.59;5081036;28;19929;-77
2023/10/29 08:08:32;;;;;;;;;;;;;;;10.06;100.00;99339.50;5081899;28;19920;-78
2023/10/29 08:10:57;;;;;;;;;;;;;;;10.09;100.00;99349.78;5087461;28;20023;-77
2023/10/29 08:13:22;;;;;;;;;;;;;;;10.11;100.00;99358.38;5081887;28;20363;-77
2023/10/29 08:15:48;;;;;;;;;;;;;;;10.16;100.00;99356.41;5072582;28;19987;-78
2023/10/29 08:18:14;;;;;;;;;;;;;;;10.18;100.00;99353.75;5078120;28;20269;-78
2023/10/29 08:20:39;;;;;;;;;;;;;;;10.25;100.00;99369.00;5084874;28;19947;-78
2023/10/29 08:23:05;;;;;;;;;;;;;;;10.23;100.00;99370.81;5085150;28;19923;-78
2023/10/29 08:25:31;;;;;;;;;;;;;;;10.25;100.00;99365.56;5080707;28;19929;-78
2023/10/29 08:27:56;;;;;;;;;;;;;;;10.29;100.00;99373.19;5082812;28;20708;-78
2023/10/29 08:30:21;;;;;;;;;;;;;;;10.39;100.00;99360.59;5076075;28;19924;-77
2023/10/29 08:32:48;;;;;;;;;;;;;;;10.46;100.00;99367.22;5081382;28;21519;-78
2023/10/29 08:35:13;;;;;;;;;;;;;;;10.52;100.00;99368.69;5082201;28;20014;-77
2023/10/29 08:37:38;;;;;;;;;;;;;;;10.63;100.00;99363.00;5083215;28;19927;-77
2023/10/29 08:40:04;;;;;;;;;;;;;;;10.76;100.00;99366.69;5085114;28;19920;-78
2023/10/29 08:42:30;;;;;;;;;;;;;;;10.86;100.00;99356.69;5083941;28;20372;-78
2023/10/29 08:44:58;;;;;;;;;;;;;;;10.88;100.00;99370.47;5081252;28;19974;-78
2023/10/29 08:47:25;;;;;;;;;;;;;;;10.88;100.00;99380.91;5086503;28;19920;-78
2023/10/29 08:49:50;;;;;;;;;;;;;;;10.93;100.00;99397.19;5080151;28;20265;-77
2023/10/29 08:52:17;;;;;;;;;;;;;;;10.97;100.00;99394.34;5088458;28;19928;-77
2023/10/29 08:54:42;;;;;;;;;;;;;;;11.06;100.00;99406.09;5080600;28;20382;-78
2023/10/29 08:57:07;;;;;;;;;;;;;;;11.17;100.00;99413.41;5088092;28;19967;-78
2023/10/29 08:59:32;;;;;;;;;;;;;;;11.23;100.00;99416.53;5074714;28;19920;-78
2023/10/29 09:01:57;;;;;;;;;;;;;;;11.37;100.00;99415.88;5087904;28;20306;-77
2023/10/29 09:04:23;;;;;;;;;;;;;;;11.48;100.00;99413.59;5080959;28;19928;-77
2023/10/29 09:06:48;;;;;;;;;;;;;;;11.55;100.00;99419.34;5073175;28;19977;-77
2023/10/29 09:09:13;;;;;;;;;;;;;;;11.63;100.00;99432.00;5082721;28;20328;-77
2023/10/29 09:11:39;;;;;;;;;;;;;;;11.73;100.00;99436.66;5079320;28;19929;-78
2023/10/29 09:14:07;;;;;;;;;;;;;;;11.77;100.00;99434.78;5074205;28;20378;-77
2023/10/29 09:16:32;;;;;;;;;;;;;;;11.79;100.00;99432.91;5072974;28;19929;-77
2023/10/29 09:18:57;;;;;;;;;;;;;;;11.68;100.00;99432.63;5072703;28;19990;-78
2023/10/29 09:21:23;;;;;;;;;;;;;;;11.53;100.00;99449.03;5078898;28;20356;-77
2023/10/29 09:23:48;;;;;;;;;;;;;;;11.42;100.00;99450.41;5081228;28;19920;-78
2023/10/29 09:26:13;;;;;;;;;;;;;;;11.38;100.00;99438.44;5075053;28;19928;-78
2023/10/29 09:28:38;;;;;;;;;;;;;;;11.43;100.00;99430.38;5082365;28;19920;-77
2023/10/29 09:31:04;;;;;;;;;;;;;;;11.52;100.00;99442.16;5083168;28;19999;-76
2023/10/29 09:33:29;;;;;;;;;;;;;;;11.63;100.00;99448.50;5084258;28;19924;-77
2023/10/29 09:35:54;;;;;;;;;;;;;;;11.77;100.00;99426.06;5079924;28;19928;-77
2023/10/29 09:38:20;;;;;;;;;;;;;;;11.93;100.00;99429.63;5074225;28;20420;-76
2023/10/29 09:40:46;;;;;;;;;;;;;;;11.94;100.00;99452.22;5083325;28;19963;-77
2023/10/29 09:43:12;;;;;;;;;;;;;;;11.82;100.00;99440.59;5075041;28;19924;-77
2023/10/29 09:45:38;;;;;;;;;;;;;;;11.76;100.00;99434.84;5069365;28;19977;-78
2023/10/29 09:48:04;;;;;;;;;;;;;;;11.79;100.00;99442.53;5081657;28;19920;-77
2023/10/29 09:50:30;;;;;;;;;;;;;;;11.81;100.00;99433.69;5084076;28;19934;-77
2023/10/29 09:52:57;;;;;;;;;;;;;;;11.81;100.00;99436.31;5081031;28;19920;-77
2023/10/29 09:55:23;;;;;;;;;;;;;;;11.81;100.00;99449.34;5084257;28;20019;-77
2023/10/29 09:57:49;;;;;;;;;;;;;;;11.82;100.00;99437.97;5083032;28;19964;-77
2023/10/29 10:00:17;;;;;;;;;;;;;;;11.89;100.00;99418.50;5081849;28;20050;-77
2023/10/29 10:02:49;;;;;;;;;;;;;;;12.02;100.00;99420.47;5083350;28;19916;-77
2023/10/29 10:05:17;;;;;;;;;;;;;;;12.10;100.00;99426.16;5082215;28;19920;-77
2023/10/29 10:07:42;;;;;;;;;;;;;;;12.17;100.00;99417.91;5084986;28;19928;-77
2023/10/29 10:10:07;;;;;;;;;;;;;;;12.23;100.00;99421.09;5086054;28;19920;-77
2023/10/29 10:12:33;;;;;;;;;;;;;;;12.26;100.00;99423.56;5086910;28;19924;-77
2023/10/29 10:15:05;;;;;;;;;;;;;;;12.28;100.00;99419.13;5087768;28;20447;-77
2023/10/29 10:17:30;;;;;;;;;;;;;;;12.24;100.00;99421.03;5078423;28;19920;-77
2023/10/29 10:20:10;;;;;;;;;;;;;;;12.23;100.00;99413.28;5088238;28;20448;-77
2023/10/29 10:22:35;;;;;;;;;;;;;;;12.24;100.00;99410.59;5086051;28;20379;-77
2023/10/29 10:25:00;;;;;;;;;;;;;;;12.29;100.00;99415.56;5085571;28;19951;-77
2023/10/29 10:27:26;;;;;;;;;;;;;;;12.35;100.00;99408.25;5082297;28;19920;-77
2023/10/29 10:29:51;;;;;;;;;;;;;;;12.36;100.00;99398.63;5079829;28;20282;-77
2023/10/29 10:32:22;;;;;;;;;;;;;;;12.49;100.00;99411.88;5087262;28;20382;-77
2023/10/29 10:34:51;;;;;;;;;;;;;;;12.61;100.00;99408.59;5085044;28;19925;-77
2023/10/29 10:37:16;;;;;;;;;;;;;;;12.78;100.00;99412.91;5088256;28;19920;-77
2023/10/29 10:39:42;;;;;;;;;;;;;;;12.89;100.00;99419.25;5084069;28;19943;-77
2023/10/29 10:42:07;;;;;;;;;;;;;;;13.04;100.00;99427.16;5090065;28;19927;-78
2023/10/29 10:44:35;;;;;;;;;;;;;;;13.04;100.00;99442.84;5083958;28;19920;-78
2023/10/29 10:47:02;;;;;;;;;;;;;;;12.96;100.00;99448.53;5090997;28;19920;-77
2023/10/29 10:49:31;;;;;;;;;;;;;;;12.93;100.00;99456.53;5083081;28;19971;-77
2023/10/29 10:51:58;;;;;;;;;;;;;;;12.84;100.00;99454.41;5090885;28;19920;-77
2023/10/29 10:54:24;;;;;;;;;;;;;;;12.68;100.00;99459.63;5083387;28;20043;-77
2023/10/29 10:56:50;;;;;;;;;;;;;;;12.56;100.00;99462.94;5089670;28;20022;-77
2023/10/29 10:59:15;;;;;;;;;;;;;;;12.45;100.00;99452.19;5083925;28;19953;-77
2023/10/29 11:01:40;;;;;;;;;;;;;;;12.29;100.00;99452.97;5088531;28;20397;-77
2023/10/29 11:04:08;;;;;;;;;;;;;;;12.17;100.00;99448.44;5085047;28;20482;-77
2023/10/29 11:06:34;;;;;;;;;;;;;;;12.08;100.00;99447.13;5087132;28;19920;-77
2023/10/29 11:09:02;;;;;;;;;;;;;;;12.04;100.00;99444.75;5085384;28;20431;-77
2023/10/29 11:11:35;;;;;;;;;;;;;;;12.00;100.00;99445.81;5086040;28;19920;-77
2023/10/29 11:14:07;;;;;;;;;;;;;;;11.98;100.00;99439.84;5086021;28;20375;-77
2023/10/29 11:16:32;;;;;;;;;;;;;;;11.94;100.00;99426.09;5077509;28;19971;-77
2023/10/29 11:18:58;;;;;;;;;;;;;;;11.93;100.00;99424.41;5084609;28;20356;-77
2023/10/29 11:21:31;;;;;;;;;;;;;;;11.93;100.00;99424.41;5086127;28;19924;-77
2023/10/29 11:24:15;;;;;;;;;;;;;;;11.95;100.00;99414.72;5085167;28;20384;-77
2023/10/29 11:26:40;;;;;;;;;;;;;;;11.98;100.00;99403.28;5080076;28;20002;-77
2023/10/29 11:29:05;;;;;;;;;;;;;;;11.98;100.00;99391.06;5081030;28;20038;-77
2023/10/29 11:31:30;;;;;;;;;;;;;;;12.00;100.00;99384.00;5085775;28;19924;-74
2023/10/29 11:33:55;;;;;;;;;;;;;;;12.07;100.00;99392.38;5073278;28;19920;-74
2023/10/29 11:36:31;;;;;;;;;;;;;;;12.14;100.00;99384.09;5087842;28;19924;-74
2023/10/29 11:39:15;;;;;;;;;;;;;;;12.22;100.00;99375.00;5074061;28;19925;-76
2023/10/29 11:41:41;;;;;;;;;;;;;;;12.37;100.00;99372.44;5089602;28;19927;-76
2023/10/29 11:44:18;;;;;;;;;;;;;;;12.52;100.00;99362.06;5077726;28;19924;-76
2023/10/29 11:46:58;;;;;;;;;;;;;;;12.67;100.00;99344.69;5083370;28;19928;-75
2023/10/29 11:49:24;;;;;;;;;;;;;;;12.79;100.00;99342.22;5079723;28;19920;-76
2023/10/29 11:51:54;;;;;;;;;;;;;;;12.76;100.00;99345.00;5079245;28;20003;-77
2023/10/29 11:54:19;;;;;;;;;;;;;;;12.70;100.00;99340.13;5078233;28;20402;-78
2023/10/29 11:56:46;;;;;;;;;;;;;;;12.62;100.00;99347.53;5088128;28;19920;-77
2023/10/29 11:59:11;;;;;;;;;;;;;;;12.60;100.00;99344.19;5087452;28;19924;-77
2023/10/29 12:01:38;;;;;;;;;;;;;;;12.72;100.00;99322.59;5086140;28;20264;-79
2023/10/29 12:04:03;;;;;;;;;;;;;;;12.85;100.00;99327.94;5084705;28;19954;-79
2023/10/29 12:06:38;;;;;;;;;;;;;;;12.96;100.00;99322.97;5078916;28;19919;-80
2023/10/29 12:09:16;;;;;;;;;;;;;;;12.94;100.00;99339.66;5085095;28;20341;-80
2023/10/29 12:11:41;;;;;;;;;;;;;;;12.85;100.00;99352.34;5083663;28;19924;-79
2023/10/29 12:14:07;;;;;;;;;;;;;;;12.74;100.00;99346.88;5084537;28;19935;-79
2023/10/29 12:16:32;;;;;;;;;;;;;;;12.69;100.00;99356.75;5072406;28;19940;-79
2023/10/29 12:18:57;;;;;;;;;;;;;;;12.65;100.00;99342.13;5072593;28;19948;-78
2023/10/29 12:21:23;;;;;;;;;;;;;;;12.66;100.00;99338.63;5075163;28;20019;-78
2023/10/29 12:23:49;;;;;;;;;;;;;;;12.68;100.00;99328.91;5065592;28;19923;-78
2023/10/29 12:26:14;;;;;;;;;;;;;;;12.70;100.00;99316.59;5074678;28;19973;-78
2023/10/29 12:28:40;;;;;;;;;;;;;;;12.71;100.00;99340.97;5081600;28;19924;-78
2023/10/29 12:31:10;;;;;;;;;;;;;;;12.73;100.00;99345.19;5075585;28;19921;-79